createdAt,value
2023-02-25T00:00:49.212Z,54.10
2023-02-25T00:03:19.455Z,53.60
2023-02-25T00:05:46.190Z,54.20
2023-02-25T00:08:12.796Z,54.10
2023-02-25T00:10:39.391Z,54.10
2023-02-25T00:13:17.829Z,54.10
2023-02-25T00:15:45.209Z,54.10
2023-02-25T00:18:11.820Z,54.20
2023-02-25T00:20:41.163Z,54.10
2023-02-25T00:23:08.094Z,54.10
2023-02-25T00:25:34.729Z,54.20
2023-02-25T00:28:05.552Z,54.10
2023-02-25T00:30:33.946Z,54.20
2023-02-25T00:33:00.921Z,54.10
2023-02-25T00:35:28.759Z,54.20
2023-02-25T00:37:59.150Z,54.20
2023-02-25T00:40:30.684Z,54.20
2023-02-25T00:42:57.314Z,54.20
2023-02-25T00:45:23.909Z,54.20
2023-02-25T00:47:50.510Z,54.20
2023-02-25T00:50:17.209Z,54.10
2023-02-25T00:52:43.816Z,54.20
2023-02-25T00:55:10.570Z,54.20
2023-02-25T00:57:37.247Z,54.10
2023-02-25T01:00:10.078Z,54.10
2023-02-25T01:02:37.432Z,54.10
2023-02-25T01:05:04.247Z,54.10
2023-02-25T01:07:30.934Z,54.10
2023-02-25T01:09:57.609Z,54.10
2023-02-25T01:12:24.239Z,54.10
2023-02-25T01:14:50.830Z,54.10
2023-02-25T01:17:18.030Z,54.10
2023-02-25T01:19:44.653Z,54.10
2023-02-25T01:22:11.262Z,54.20
2023-02-25T01:24:37.869Z,54.10
2023-02-25T01:27:04.744Z,54.10
2023-02-25T01:29:39.041Z,54.10
2023-02-25T01:32:07.906Z,53.60
2023-02-25T01:34:34.731Z,54.10
2023-02-25T01:37:01.856Z,54.10
2023-02-25T01:39:29.757Z,54.10
2023-02-25T01:41:57.763Z,54.10
2023-02-25T01:44:33.760Z,54.10
2023-02-25T01:47:03.865Z,54.10
2023-02-25T01:49:45.043Z,54.70
2023-02-25T01:52:18.058Z,53.60
2023-02-25T01:54:49.689Z,54.10
2023-02-25T01:57:18.030Z,54.10
2023-02-25T01:59:46.636Z,54.10
2023-02-25T02:02:18.921Z,54.10
2023-02-25T02:04:51.213Z,54.10
2023-02-25T02:07:18.784Z,54.10
2023-02-25T02:09:55.805Z,54.10
2023-02-25T02:12:36.928Z,54.10
2023-02-25T02:15:08.181Z,54.10
2023-02-25T02:17:49.918Z,54.10
2023-02-25T02:20:23.005Z,54.20
2023-02-25T02:23:17.279Z,54.20
2023-02-25T02:26:21.627Z,54.10
2023-02-25T02:28:51.244Z,54.10
2023-02-25T02:31:32.813Z,54.10
2023-02-25T02:34:32.880Z,54.10
2023-02-25T02:37:24.620Z,54.10
2023-02-25T02:40:09.463Z,54.10
2023-02-25T02:42:43.586Z,53.60
2023-02-25T02:45:34.570Z,54.10
2023-02-25T02:48:15.262Z,54.10
2023-02-25T02:50:47.541Z,54.70
2023-02-25T02:53:24.421Z,54.10
2023-02-25T02:55:55.967Z,54.10
2023-02-25T02:58:34.977Z,54.10
2023-02-25T03:01:11.851Z,54.20
2023-02-25T03:03:43.593Z,54.20
2023-02-25T03:06:21.628Z,54.10
2023-02-25T03:08:55.975Z,54.10
2023-02-25T03:11:22.661Z,54.10
2023-02-25T03:13:50.792Z,54.10
2023-02-25T03:16:23.986Z,54.10
2023-02-25T03:19:05.096Z,54.10
2023-02-25T03:21:52.363Z,54.00
2023-02-25T03:24:26.233Z,54.10
2023-02-25T03:26:53.184Z,54.10
2023-02-25T03:29:23.483Z,54.10
2023-02-25T03:31:59.382Z,54.10
2023-02-25T03:34:38.209Z,54.10
2023-02-25T03:37:28.230Z,54.10
2023-02-25T03:39:59.006Z,54.10
2023-02-25T03:42:33.611Z,53.60
2023-02-25T03:45:04.223Z,54.10
2023-02-25T03:47:34.600Z,54.10
2023-02-25T03:50:10.188Z,54.10
2023-02-25T03:52:38.602Z,54.10
2023-02-25T03:55:07.623Z,54.10
2023-02-25T03:57:37.815Z,54.10
2023-02-25T04:00:29.826Z,54.10
2023-02-25T04:02:56.766Z,54.10
2023-02-25T04:05:27.666Z,54.00
2023-02-25T04:07:55.768Z,54.10
2023-02-25T04:10:22.661Z,54.10
2023-02-25T04:12:51.107Z,54.10
2023-02-25T04:15:18.699Z,54.10
2023-02-25T04:17:45.560Z,54.10
2023-02-25T04:20:14.139Z,54.10
2023-02-25T04:22:40.980Z,54.10
2023-02-25T04:25:08.016Z,54.10
2023-02-25T04:27:34.746Z,54.10
2023-02-25T04:30:01.432Z,54.10
2023-02-25T04:32:28.188Z,54.10
2023-02-25T04:34:54.953Z,54.10
2023-02-25T04:37:21.599Z,54.00
2023-02-25T04:39:48.191Z,54.10
2023-02-25T04:42:14.824Z,54.00
2023-02-25T04:44:41.458Z,54.10
2023-02-25T04:47:08.454Z,54.10
2023-02-25T04:49:44.550Z,54.10
2023-02-25T04:52:13.002Z,54.10
2023-02-25T04:54:39.685Z,54.10
2023-02-25T04:57:07.308Z,54.00
2023-02-25T04:59:34.057Z,54.10
2023-02-25T05:02:01.093Z,54.10
2023-02-25T05:04:28.017Z,54.10
2023-02-25T05:06:54.630Z,54.00
2023-02-25T05:09:21.253Z,54.00
2023-02-25T05:11:47.858Z,53.50
2023-02-25T05:14:14.645Z,54.00
2023-02-25T05:16:41.316Z,54.00
2023-02-25T05:19:08.070Z,54.00
2023-02-25T05:21:34.819Z,54.00
2023-02-25T05:24:01.459Z,54.10
2023-02-25T05:26:28.205Z,54.10
2023-02-25T05:28:57.048Z,53.90
2023-02-25T05:31:25.037Z,54.00
2023-02-25T05:33:52.726Z,54.00
2023-02-25T05:36:19.808Z,54.00
2023-02-25T05:38:47.356Z,54.00
2023-02-25T05:41:15.272Z,54.00
2023-02-25T05:43:42.335Z,54.00
2023-02-25T05:46:11.721Z,54.00
2023-02-25T05:48:40.302Z,54.00
2023-02-25T05:51:10.617Z,54.00
2023-02-25T05:53:38.046Z,53.40
2023-02-25T05:56:10.788Z,53.90
2023-02-25T05:58:37.520Z,53.80
2023-02-25T06:01:11.319Z,53.90
2023-02-25T06:03:38.577Z,53.90
2023-02-25T06:06:06.374Z,54.00
2023-02-25T06:08:33.883Z,53.80
2023-02-25T06:11:01.729Z,53.40
2023-02-25T06:13:28.421Z,53.90
2023-02-25T06:15:55.139Z,53.90
2023-02-25T06:18:22.030Z,53.90
2023-02-25T06:20:48.734Z,53.80
2023-02-25T06:23:15.543Z,53.30
2023-02-25T06:25:42.140Z,53.90
2023-02-25T06:28:09.469Z,53.90
2023-02-25T06:30:36.415Z,53.80
2023-02-25T06:33:03.056Z,53.80
2023-02-25T06:35:30.369Z,53.80
2023-02-25T06:37:58.678Z,53.90
2023-02-25T06:40:26.670Z,53.80
2023-02-25T06:42:53.332Z,53.90
2023-02-25T06:45:20.367Z,53.80
2023-02-25T06:47:47.018Z,53.90
2023-02-25T06:50:14.264Z,53.80
2023-02-25T06:52:40.972Z,53.80
2023-02-25T06:55:08.138Z,53.90
2023-02-25T06:57:35.183Z,53.80
2023-02-25T07:00:01.932Z,53.80
2023-02-25T07:02:28.587Z,53.30
2023-02-25T07:04:56.095Z,53.80
2023-02-25T07:07:23.140Z,53.90
2023-02-25T07:09:49.752Z,53.80
2023-02-25T07:12:16.332Z,53.80
2023-02-25T07:14:43.007Z,53.80
2023-02-25T07:17:09.587Z,53.80
2023-02-25T07:19:36.202Z,53.80
2023-02-25T07:22:03.183Z,53.80
2023-02-25T07:24:29.888Z,53.80
2023-02-25T07:26:56.671Z,53.80
2023-02-25T07:29:23.523Z,53.80
2023-02-25T07:31:50.243Z,53.30
2023-02-25T07:34:16.921Z,53.80
2023-02-25T07:36:43.537Z,53.80
2023-02-25T07:39:11.912Z,53.80
2023-02-25T07:41:39.311Z,53.80
2023-02-25T07:44:06.906Z,53.80
2023-02-25T07:46:34.099Z,53.80
2023-02-25T07:49:00.830Z,53.80
2023-02-25T07:51:27.633Z,53.80
2023-02-25T07:53:56.228Z,53.80
2023-02-25T07:56:24.419Z,53.80
2023-02-25T07:58:51.285Z,53.80
2023-02-25T08:01:33.027Z,53.30
2023-02-25T08:04:06.998Z,53.80
2023-02-25T08:06:38.633Z,53.80
2023-02-25T08:09:07.140Z,53.80
2023-02-25T08:11:34.159Z,53.80
2023-02-25T08:14:01.572Z,53.80
2023-02-25T08:16:28.501Z,53.80
2023-02-25T08:18:55.206Z,53.80
2023-02-25T08:21:23.450Z,53.80
2023-02-25T08:23:54.370Z,53.80
2023-02-25T08:26:22.478Z,53.80
2023-02-25T08:28:50.253Z,53.80
2023-02-25T08:31:18.505Z,53.80
2023-02-25T08:33:49.334Z,53.80
2023-02-25T08:36:24.794Z,53.80
2023-02-25T08:38:52.766Z,53.80
2023-02-25T08:41:20.977Z,53.40
2023-02-25T08:43:54.319Z,53.90
2023-02-25T08:46:22.621Z,53.90
2023-02-25T08:48:51.064Z,53.80
2023-02-25T08:51:18.944Z,53.80
2023-02-25T08:53:45.670Z,53.60
2023-02-25T08:56:14.251Z,53.80
2023-02-25T08:58:41.277Z,53.70
2023-02-25T09:01:14.404Z,53.70
2023-02-25T09:03:53.560Z,53.60
2023-02-25T09:06:26.630Z,53.60
2023-02-25T09:08:54.973Z,53.70
2023-02-25T09:11:22.788Z,53.50
2023-02-25T09:13:49.690Z,53.50
2023-02-25T09:16:17.214Z,53.40
2023-02-25T09:18:45.721Z,53.20
2023-02-25T09:21:13.255Z,52.60
2023-02-25T09:23:40.472Z,52.50
2023-02-25T09:26:07.904Z,53.10
2023-02-25T09:28:35.515Z,52.90
2023-02-25T09:31:02.561Z,52.80
2023-02-25T09:33:31.629Z,52.80
2023-02-25T09:36:10.061Z,52.80
2023-02-25T09:38:37.820Z,52.80
2023-02-25T09:41:16.962Z,52.30
2023-02-25T09:43:43.944Z,52.70
2023-02-25T09:46:15.450Z,52.70
2023-02-25T09:48:56.868Z,52.70
2023-02-25T09:51:31.203Z,52.30
2023-02-25T09:54:21.027Z,52.80
2023-02-25T09:56:47.984Z,53.50
2023-02-25T09:59:17.597Z,52.80
2023-02-25T10:02:28.968Z,52.80
2023-02-25T10:05:06.726Z,52.90
2023-02-25T10:07:52.974Z,52.90
2023-02-25T10:10:47.112Z,52.90
2023-02-25T10:13:22.329Z,52.90
2023-02-25T10:16:06.069Z,52.90
2023-02-25T10:18:51.114Z,52.80
2023-02-25T10:21:23.464Z,52.30
2023-02-25T10:24:36.477Z,52.80
2023-02-25T10:27:24.403Z,52.80
2023-02-25T10:29:56.866Z,52.80
2023-02-25T10:32:26.592Z,52.90
2023-02-25T10:35:00.397Z,52.80
2023-02-25T10:37:34.044Z,52.80
2023-02-25T10:40:04.479Z,52.60
2023-02-25T10:42:31.473Z,52.60
2023-02-25T10:45:08.096Z,52.50
2023-02-25T10:47:38.421Z,52.50
2023-02-25T10:50:14.198Z,52.60
2023-02-25T10:53:04.578Z,51.90
2023-02-25T10:55:52.561Z,52.40
2023-02-25T10:58:34.446Z,52.40
2023-02-25T11:01:06.457Z,51.80
2023-02-25T11:03:41.742Z,52.30
2023-02-25T11:06:11.599Z,52.30
2023-02-25T11:08:38.601Z,52.20
2023-02-25T11:11:19.544Z,51.70
2023-02-25T11:13:55.962Z,52.30
2023-02-25T11:16:23.010Z,52.30
2023-02-25T11:18:57.462Z,52.20
2023-02-25T11:21:44.685Z,52.20
2023-02-25T11:24:27.466Z,52.30
2023-02-25T11:26:54.304Z,52.20
2023-02-25T11:29:25.785Z,52.10
2023-02-25T11:31:58.694Z,52.20
2023-02-25T11:34:30.546Z,52.20
2023-02-25T11:37:18.890Z,52.10
2023-02-25T11:39:56.062Z,52.10
2023-02-25T11:42:26.257Z,51.90
2023-02-25T11:45:04.268Z,52.00
2023-02-25T11:47:37.952Z,51.90
2023-02-25T11:50:13.401Z,52.00
2023-02-25T11:52:39.930Z,51.90
2023-02-25T11:55:36.348Z,51.90
2023-02-25T11:58:43.739Z,51.90
2023-02-25T12:01:32.515Z,51.80
2023-02-25T12:04:11.053Z,51.30
2023-02-25T12:07:18.724Z,51.80
2023-02-25T12:10:15.255Z,51.80
2023-02-25T12:13:18.732Z,51.80
2023-02-25T12:16:09.964Z,51.80
2023-02-25T12:18:54.196Z,51.70
2023-02-25T12:22:00.744Z,51.70
2023-02-25T12:24:40.375Z,51.70
2023-02-25T12:27:22.460Z,51.70
2023-02-25T12:30:45.198Z,51.80
2023-02-25T12:33:18.691Z,51.70
2023-02-25T12:36:16.467Z,51.70
2023-02-25T12:38:48.852Z,51.80
2023-02-25T12:41:42.297Z,51.80
2023-02-25T12:44:23.946Z,51.70
2023-02-25T12:47:15.496Z,51.60
2023-02-25T12:50:19.490Z,51.80
2023-02-25T12:52:49.048Z,52.40
2023-02-25T12:55:42.019Z,51.70
2023-02-25T12:58:33.487Z,51.70
2023-02-25T13:01:09.852Z,51.20
2023-02-25T13:03:58.031Z,51.80
2023-02-25T13:06:24.619Z,51.80
2023-02-25T13:09:10.264Z,51.80
2023-02-25T13:12:12.908Z,51.80
2023-02-25T13:14:58.023Z,51.80
2023-02-25T13:18:00.716Z,51.80
2023-02-25T13:20:50.516Z,51.90
2023-02-25T13:24:01.025Z,51.90
2023-02-25T13:27:08.982Z,51.80
2023-02-25T13:29:52.333Z,51.90
2023-02-25T13:32:42.902Z,51.90
2023-02-25T13:35:09.467Z,51.90
2023-02-25T13:38:13.316Z,51.80
2023-02-25T13:40:50.824Z,51.80
2023-02-25T13:43:35.692Z,51.90
2023-02-25T13:46:32.601Z,51.80
2023-02-25T13:49:27.579Z,51.90
2023-02-25T13:52:12.559Z,51.80
2023-02-25T13:54:51.221Z,51.80
2023-02-25T13:57:29.128Z,51.80
2023-02-25T14:00:14.513Z,51.80
2023-02-25T14:03:14.384Z,51.80
2023-02-25T14:05:58.616Z,51.90
2023-02-25T14:09:01.867Z,51.90
2023-02-25T14:11:43.627Z,51.80
2023-02-25T14:14:39.819Z,51.80
2023-02-25T14:17:20.679Z,51.90
2023-02-25T14:20:02.824Z,51.90
2023-02-25T14:22:39.948Z,51.50
2023-02-25T14:25:38.792Z,47.20
2023-02-25T14:28:42.994Z,46.00
2023-02-25T14:31:54.396Z,44.60
2023-02-25T14:34:36.175Z,46.80
2023-02-25T14:37:34.121Z,47.50
2023-02-25T14:40:28.166Z,47.10
2023-02-25T14:43:07.094Z,48.20
2023-02-25T14:45:33.690Z,48.30
2023-02-25T14:48:06.192Z,48.40
2023-02-25T14:50:43.806Z,48.10
2023-02-25T14:53:33.750Z,48.60
2023-02-25T14:56:20.796Z,49.00
2023-02-25T14:59:17.266Z,49.30
2023-02-25T15:02:14.291Z,48.70
2023-02-25T15:04:59.308Z,49.30
2023-02-25T15:08:16.134Z,49.40
2023-02-25T15:11:22.396Z,49.60
2023-02-25T15:13:55.712Z,49.70
2023-02-25T15:16:37.100Z,49.70
2023-02-25T15:19:38.600Z,49.80
2023-02-25T15:22:13.958Z,49.90
2023-02-25T15:24:41.765Z,50.00
2023-02-25T15:27:37.601Z,49.90
2023-02-25T15:43:16.418Z,48.90
2023-02-25T15:46:13.355Z,49.80
2023-02-25T15:48:41.848Z,50.10
2023-02-25T15:51:11.293Z,50.00
2023-02-25T15:53:41.305Z,50.00
2023-02-25T15:56:08.424Z,50.10
2023-02-25T15:58:34.959Z,50.20
2023-02-25T16:01:02.388Z,46.40
2023-02-25T16:03:31.778Z,48.50
2023-02-25T16:06:13.590Z,48.90
2023-02-25T16:08:51.596Z,48.70
2023-02-25T16:11:38.202Z,48.80
2023-02-25T16:14:26.935Z,48.70
2023-02-25T16:17:16.258Z,48.80
2023-02-25T16:19:46.701Z,49.10
2023-02-25T16:22:17.367Z,49.30
2023-02-25T16:24:48.708Z,49.30
2023-02-25T16:27:33.347Z,49.30
2023-02-25T16:30:31.267Z,49.40
2023-02-25T16:33:09.272Z,49.40
2023-02-25T16:35:48.407Z,49.50
2023-02-25T16:38:23.668Z,49.50
2023-02-25T16:40:50.596Z,49.00
2023-02-25T16:43:30.287Z,49.40
2023-02-25T16:46:00.510Z,49.40
2023-02-25T16:48:55.174Z,49.50
2023-02-25T16:51:40.034Z,49.40
2023-02-25T16:54:08.897Z,49.20
2023-02-25T16:56:36.454Z,49.20
2023-02-25T16:59:17.458Z,49.20
2023-02-25T17:01:59.919Z,49.20
2023-02-25T17:04:35.775Z,49.20
2023-02-25T17:07:07.052Z,49.40
2023-02-25T17:09:34.430Z,49.50
2023-02-25T17:12:03.737Z,49.60
2023-02-25T17:14:31.489Z,49.50
2023-02-25T17:16:59.018Z,49.40
2023-02-25T17:19:26.617Z,49.20
2023-02-25T17:21:58.595Z,49.30
2023-02-25T17:24:30.980Z,49.10
2023-02-25T17:26:58.008Z,49.20
2023-02-25T17:29:36.292Z,49.10
2023-02-25T17:32:32.512Z,49.00
2023-02-25T17:35:02.309Z,49.10
2023-02-25T17:37:30.926Z,49.40
2023-02-25T17:39:59.499Z,49.30
2023-02-25T17:42:35.890Z,49.40
2023-02-25T17:45:07.095Z,49.60
2023-02-25T17:47:35.309Z,49.60
2023-02-25T17:50:32.505Z,49.70
2023-02-25T17:52:59.902Z,49.90
2023-02-25T17:55:36.939Z,49.90
2023-02-25T17:58:04.109Z,49.80
2023-02-25T18:00:34.361Z,49.80
2023-02-25T18:03:15.983Z,50.00
2023-02-25T18:06:02.667Z,50.00
2023-02-25T18:08:51.298Z,50.00
2023-02-25T18:11:26.830Z,50.10
2023-02-25T18:13:53.968Z,50.10
2023-02-25T18:16:42.152Z,50.20
2023-02-25T18:19:17.457Z,50.20
2023-02-25T18:21:44.187Z,50.20
2023-02-25T18:24:33.333Z,50.20
2023-02-25T18:27:04.242Z,50.30
2023-02-25T18:29:31.443Z,50.40
2023-02-25T18:31:58.140Z,50.50
2023-02-25T18:34:25.161Z,50.60
2023-02-25T18:36:51.849Z,50.70
2023-02-25T18:39:19.903Z,50.70
2023-02-25T18:41:46.479Z,50.70
2023-02-25T18:44:14.220Z,50.80
2023-02-25T18:46:40.886Z,50.80
2023-02-25T18:49:07.841Z,50.70
2023-02-25T18:51:34.522Z,50.60
2023-02-25T18:54:01.212Z,50.70
2023-02-25T18:56:28.292Z,50.60
2023-02-25T18:58:56.472Z,50.70
2023-02-25T19:01:26.450Z,50.50
2023-02-25T19:03:59.311Z,50.60
2023-02-25T19:06:30.778Z,51.00
2023-02-25T19:08:57.497Z,50.90
2023-02-25T19:11:29.583Z,51.10
2023-02-25T19:13:56.192Z,51.00
2023-02-25T19:16:23.626Z,50.90
2023-02-25T19:18:50.626Z,51.00
2023-02-25T19:21:21.834Z,51.00
2023-02-25T19:23:51.795Z,50.90
2023-02-25T19:26:18.843Z,51.00
2023-02-25T19:28:45.478Z,50.90
2023-02-25T19:31:12.443Z,51.00
2023-02-25T19:33:39.285Z,50.80
2023-02-25T19:36:06.819Z,50.90
2023-02-25T19:38:33.642Z,50.90
2023-02-25T19:41:05.944Z,50.80
2023-02-25T19:43:33.064Z,50.90
2023-02-25T19:45:59.735Z,51.00
2023-02-25T19:48:26.495Z,50.90
2023-02-25T19:50:53.312Z,50.80
2023-02-25T19:53:20.135Z,50.80
2023-02-25T19:55:46.901Z,50.90
2023-02-25T19:58:13.825Z,50.80
2023-02-25T20:00:45.682Z,51.20
2023-02-25T20:03:13.820Z,50.90
2023-02-25T20:05:40.685Z,50.80
2023-02-25T20:08:07.903Z,51.00
2023-02-25T20:10:34.627Z,50.90
2023-02-25T20:13:01.294Z,50.90
2023-02-25T20:15:27.950Z,50.90
2023-02-25T20:17:55.623Z,51.00
2023-02-25T20:20:23.700Z,51.10
2023-02-25T20:22:50.658Z,51.10
2023-02-25T20:25:17.553Z,51.00
2023-02-25T20:27:44.176Z,51.00
2023-02-25T20:30:14.602Z,51.10
2023-02-25T20:32:42.772Z,51.10
2023-02-25T20:35:20.180Z,51.10
2023-02-25T20:38:03.185Z,51.10
2023-02-25T20:40:29.937Z,51.10
2023-02-25T20:42:56.792Z,51.10
2023-02-25T20:45:23.754Z,51.10
2023-02-25T20:47:50.565Z,51.10
2023-02-25T20:50:20.195Z,50.20
2023-02-25T20:52:46.905Z,51.20
2023-02-25T20:55:13.490Z,51.20
2023-02-25T20:57:40.094Z,51.20
2023-02-25T21:00:08.938Z,51.20
2023-02-25T21:02:36.013Z,51.20
2023-02-25T21:05:02.792Z,51.10
2023-02-25T21:07:29.501Z,51.20
2023-02-25T21:09:56.199Z,51.30
2023-02-25T21:12:23.238Z,51.30
2023-02-25T21:14:49.917Z,51.40
2023-02-25T21:17:16.719Z,51.40
2023-02-25T21:19:43.552Z,51.90
2023-02-25T21:22:10.223Z,51.50
2023-02-25T21:24:36.894Z,51.50
2023-02-25T21:27:04.080Z,51.50
2023-02-25T21:29:32.107Z,51.50
2023-02-25T21:31:58.885Z,51.00
2023-02-25T21:34:26.045Z,51.50
2023-02-25T21:36:52.635Z,51.50
2023-02-25T21:39:19.326Z,51.40
2023-02-25T21:41:46.019Z,51.50
2023-02-25T21:44:14.483Z,51.40
2023-02-25T21:46:41.140Z,51.40
2023-02-25T21:49:10.357Z,51.40
2023-02-25T21:51:37.210Z,51.40
2023-02-25T21:54:03.951Z,51.40
2023-02-25T21:56:30.968Z,51.30
2023-02-25T21:59:00.124Z,51.30
2023-02-25T22:01:32.404Z,50.80
2023-02-25T22:03:59.524Z,51.30
2023-02-25T22:06:27.629Z,51.30
2023-02-25T22:08:55.293Z,51.30
2023-02-25T22:11:31.135Z,51.20
2023-02-25T22:14:02.155Z,51.20
2023-02-25T22:16:29.545Z,51.20
2023-02-25T22:18:57.159Z,51.20
2023-02-25T22:21:26.685Z,50.60
2023-02-25T22:23:55.767Z,51.10
2023-02-25T22:26:25.599Z,51.10
2023-02-25T22:29:01.315Z,51.10
2023-02-25T22:31:28.749Z,51.10
2023-02-25T22:33:56.540Z,51.00
2023-02-25T22:36:24.248Z,51.00
2023-02-25T22:38:51.388Z,51.00
2023-02-25T22:41:21.518Z,51.00
2023-02-25T22:43:48.900Z,51.00
2023-02-25T22:46:21.542Z,51.00
2023-02-25T22:48:49.657Z,50.90
2023-02-25T22:51:22.612Z,50.90
2023-02-25T22:53:49.617Z,50.90
2023-02-25T22:56:16.849Z,50.90
2023-02-25T22:58:43.902Z,50.80
2023-02-25T23:01:12.116Z,50.90
2023-02-25T23:03:38.851Z,50.90
2023-02-25T23:06:06.681Z,51.00
2023-02-25T23:08:34.777Z,50.90
2023-02-25T23:11:16.798Z,50.80
2023-02-25T23:13:47.261Z,50.90
2023-02-25T23:16:18.229Z,51.00
2023-02-25T23:18:45.522Z,50.80
2023-02-25T23:21:18.743Z,50.90
2023-02-25T23:23:53.972Z,50.90
2023-02-25T23:26:24.216Z,50.80
2023-02-25T23:28:55.986Z,51.50
2023-02-25T23:31:28.223Z,49.70
2023-02-25T23:33:57.241Z,50.90
2023-02-25T23:36:24.606Z,50.90
2023-02-25T23:39:00.212Z,50.90
2023-02-25T23:41:28.633Z,50.90
2023-02-25T23:43:57.828Z,50.80
2023-02-25T23:46:26.167Z,50.80
2023-02-25T23:48:57.528Z,50.80
2023-02-25T23:51:24.888Z,50.80
2023-02-25T23:53:56.653Z,50.80
2023-02-25T23:56:23.886Z,50.80
2023-02-25T23:58:53.600Z,50.80
